Aviation Digital Data Service (ADDS)

Output produced by METARs form (0242 UTC 24 July 2017)
found at http://www.aviationweather.gov/adds/metars/
 
DFOO 240200Z 00000KT CAVOK 23/22 Q1015
TAF DFOO 232300Z 2400/2424 20008KT 9999 FEW016 
     TEMPO 2406/2418 4000 TSRA SCT016 SCT030CB
       
DFFD 240200Z VRB02KT CAVOK 26/23 Q1014 NOSIG
TAF DFFD 232300Z 2400/2506 24008KT 9999 FEW020 
     PROB30 
     TEMPO 2400/2406 TS FEW020 FEW033CB 
     TEMPO 2415/2424 4000 TSRA SCT020 SCT033CB